Terminal Aerodrome Forecast
Issued by NWS

Home | Current Version | Previous Version | Text Only | Print | Product List | Glossary On
Versions: 1 2 3 4 5 6 7 8 9 10 11 12 13 14 15 16 17 18 19 20 21 22 23 24 25 26 27 28
000
FTUS43 KLSX 011136
TAFCPS
TAF
KCPS 011136Z 0112/0212 27006KT 4SM -SHRA BR BKN040 OVC080
     FM011600 21006KT 5SM -SHRA VCTS OVC040CB
     FM011900 18008KT P6SM BKN060
     FM020000 17009KT 4SM SHRA VCTS OVC025CB
     FM020900 12005KT 4SM BR OVC010=

USA.gov is the U.S. government's official web portal to all federal, state and local government web resources and services.